Time;durP1;ratioP1;P1;durP2;ratioP2;P2;SDS_P1;SDS_P2;PMS_P1;PMS_P2;Temp;Humidity;BMP_temperature;BMP_pressure;BME280_temperature;BME280_humidity;BME280_pressure;Samples;Min_cycle;Max_cycle;Signal;HPM_P1;HPM_P2
2023/01/14 00:00:52;;;;;;;58.70;14.65;;;;;;;1.83;75.33;100881.84;1745396;82;21238;-78
2023/01/14 00:03:57;;;;;;;59.80;14.35;;;;;;;2.10;74.83;100884.94;1743958;82;21229;-78
2023/01/14 00:07:04;;;;;;;51.25;14.68;;;;;;;1.71;75.97;100883.57;1745295;82;21195;-78
2023/01/14 00:10:10;;;;;;;76.55;14.55;;;;;;;1.72;75.84;100880.39;1745325;82;21218;-78
2023/01/14 00:13:15;;;;;;;58.80;14.55;;;;;;;1.69;76.37;100885.49;1743507;82;21226;-78
2023/01/14 00:16:21;;;;;;;64.50;14.18;;;;;;;2.03;75.12;100879.98;1745213;82;21175;-78
2023/01/14 00:19:27;;;;;;;48.25;14.93;;;;;;;1.92;75.23;100885.25;1745353;82;21189;-78
2023/01/14 00:22:37;;;;;;;64.07;14.78;;;;;;;1.56;76.58;100883.28;1744721;82;21530;-78
2023/01/14 00:25:43;;;;;;;54.25;13.98;;;;;;;1.67;76.54;100882.54;1745869;82;21199;-77
2023/01/14 00:28:49;;;;;;;49.85;15.00;;;;;;;1.82;75.54;100887.36;1744564;82;21225;-77
2023/01/14 00:31:56;;;;;;;78.05;15.50;;;;;;;1.92;75.62;100891.13;1745144;82;21194;-78
2023/01/14 00:35:02;;;;;;;53.92;15.53;;;;;;;1.65;76.31;100884.49;1745109;82;21250;-77
2023/01/14 00:38:10;;;;;;;42.83;14.68;;;;;;;1.44;77.22;100888.15;1745148;82;21801;-78
2023/01/14 00:41:20;;;;;;;62.27;14.25;;;;;;;1.38;77.36;100875.09;1745374;82;21234;-80
2023/01/14 00:44:26;;;;;;;56.95;13.85;;;;;;;1.35;77.59;100869.90;1744091;82;21214;-80
2023/01/14 00:47:34;;;;;;;48.58;14.07;;;;;;;1.27;78.10;100870.41;1745277;82;21483;-78
2023/01/14 00:50:39;;;;;;;64.40;16.05;;;;;;;1.61;77.49;100868.14;1743906;82;21198;-78
2023/01/14 00:53:46;;;;;;;73.67;17.20;;;;;;;1.40;78.00;100877.19;1743722;82;21194;-78
2023/01/14 00:56:52;;;;;;;63.60;14.13;;;;;;;1.63;77.34;100867.05;1744986;82;21257;-77
2023/01/14 00:59:57;;;;;;;69.17;16.75;;;;;;;1.50;77.64;100868.84;1743816;82;21217;-79
2023/01/14 01:03:04;;;;;;;83.70;18.50;;;;;;;1.62;77.11;100868.51;1744949;82;21777;-78
2023/01/14 01:06:10;;;;;;;56.53;14.20;;;;;;;1.76;77.09;100861.67;1745380;82;21187;-81
2023/01/14 01:09:15;;;;;;;68.47;16.67;;;;;;;1.56;77.63;100861.71;1743929;82;21780;-80
2023/01/14 01:12:21;;;;;;;59.38;15.32;;;;;;;1.52;77.85;100857.01;1745242;82;21199;-79
2023/01/14 01:15:27;;;;;;;61.50;13.88;;;;;;;1.59;77.69;100857.44;1743211;82;21217;-78
2023/01/14 01:18:33;;;;;;;67.30;17.45;;;;;;;1.57;77.87;100851.30;1745378;82;22500;-78
2023/01/14 01:21:39;;;;;;;64.10;15.58;;;;;;;1.53;78.21;100851.98;1745456;82;21253;-78
2023/01/14 01:24:45;;;;;;;47.40;15.35;;;;;;;1.59;77.90;100850.70;1743870;82;21218;-80
2023/01/14 01:27:51;;;;;;;64.95;16.50;;;;;;;1.63;77.95;100854.91;1745408;82;21520;-79
2023/01/14 01:30:57;;;;;;;61.68;16.95;;;;;;;1.60;77.99;100847.05;1745482;82;21206;-77
2023/01/14 01:34:04;;;;;;;76.20;17.50;;;;;;;1.59;77.88;100845.30;1744650;82;21800;-77
2023/01/14 01:37:02;;;;;;;56.92;16.45;;;;;;;1.50;78.38;100845.94;1745275;82;21228;-80
2023/01/14 01:40:09;;;;;;;80.20;18.02;;;;;;;2.08;77.23;100838.33;1744069;82;21229;-78
2023/01/14 01:43:19;;;;;;;62.13;16.93;;;;;;;2.01;76.66;100836.53;1745249;82;21194;-78
2023/01/14 01:46:24;;;;;;;60.52;18.42;;;;;;;2.16;76.54;100838.13;1724416;82;21194;-77
2023/01/14 01:49:33;;;;;;;80.83;18.70;;;;;;;2.11;77.07;100838.95;1744216;82;21178;-79
2023/01/14 01:52:38;;;;;;;57.43;18.67;;;;;;;2.47;75.54;100833.23;1719497;82;21206;-77
2023/01/14 01:55:46;;;;;;;67.95;17.12;;;;;;;2.02;76.99;100832.39;1743782;82;21190;-77
2023/01/14 01:58:51;;;;;;;74.35;19.23;;;;;;;1.96;77.24;100830.59;1745677;82;21202;-78
2023/01/14 02:01:59;;;;;;;74.67;19.05;;;;;;;1.93;77.39;100830.34;1745129;82;21186;-77
2023/01/14 02:05:05;;;;;;;86.70;19.23;;;;;;;1.91;77.06;100834.97;1723293;82;21838;-78
2023/01/14 02:08:10;;;;;;;105.00;20.17;;;;;;;1.88;77.83;100824.38;1743809;82;21193;-77
2023/01/14 02:11:53;;;;;;;111.00;21.68;;;;;;;2.00;77.56;100825.37;1743908;82;21191;-80
2023/01/14 02:15:12;;;;;;;76.77;18.40;;;;;;;1.96;77.74;100827.41;1743618;82;21222;-78
2023/01/14 02:18:58;;;;;;;108.95;21.97;;;;;;;1.70;78.43;100824.36;1745295;82;21244;-79
2023/01/14 02:22:16;;;;;;;111.88;20.48;;;;;;;1.61;79.13;100821.81;1745355;82;21199;-78
2023/01/14 02:25:58;;;;;;;90.45;19.35;;;;;;;1.61;79.17;100819.59;1744281;82;21234;-78
2023/01/14 02:29:20;;;;;;;104.12;20.10;;;;;;;1.97;77.41;100815.64;1745339;82;21249;-78
2023/01/14 02:32:44;;;;;;;74.58;19.82;;;;;;;1.38;80.27;100822.53;1743982;82;21250;-78
2023/01/14 02:36:13;;;;;;;161.50;23.10;;;;;;;1.48;80.15;100826.31;1743857;82;21245;-78
2023/01/14 02:39:35;;;;;;;106.10;19.57;;;;;;;1.44;80.54;100824.80;1744831;82;21281;-77
2023/01/14 02:46:43;;;;;;;77.05;19.70;;;;;;;1.51;80.86;100824.28;1744241;82;21237;-77
2023/01/14 02:49:51;;;;;;;106.78;22.87;;;;;;;1.38;80.94;100827.92;1745053;82;21191;-78
2023/01/14 02:52:56;;;;;;;84.15;21.12;;;;;;;2.01;79.38;100831.13;1745227;82;21900;-78
2023/01/14 02:56:01;;;;;;;81.42;19.45;;;;;;;2.18;78.36;100832.64;1743939;82;21261;-78
2023/01/14 02:59:42;;;;;;;102.53;20.05;;;;;;;2.18;78.39;100836.20;1713392;83;21238;-78
2023/01/14 03:03:06;;;;;;;100.33;20.17;;;;;;;1.71;80.04;100829.63;1719442;83;21201;-78
2023/01/14 03:06:18;;;;;;;121.20;22.82;;;;;;;1.43;80.84;100833.37;1717862;83;21236;-80
2023/01/14 03:09:44;;;;;;;93.07;21.30;;;;;;;2.08;79.39;100832.44;1745216;82;21236;-79
2023/01/14 03:13:00;;;;;;;107.03;22.22;;;;;;;1.56;80.93;100838.80;1745138;82;21224;-79
2023/01/14 03:16:17;;;;;;;91.97;18.80;;;;;;;1.57;81.09;100838.30;1738485;82;21174;-79
2023/01/14 03:19:45;;;;;;;76.17;18.95;;;;;;;1.45;80.96;100846.73;1697831;84;21246;-79
2023/01/14 03:22:52;;;;;;;111.12;21.00;;;;;;;2.30;78.45;100838.00;1712333;84;21189;-79
2023/01/14 03:25:59;;;;;;;98.15;21.10;;;;;;;2.19;78.76;100839.27;1696905;84;21255;-78
2023/01/14 03:29:04;;;;;;;112.90;23.27;;;;;;;2.02;79.44;100839.59;1713558;84;21145;-79
2023/01/14 03:32:25;;;;;;;108.10;21.27;;;;;;;1.91;80.21;100843.06;1698673;84;21200;-79
2023/01/14 03:35:44;;;;;;;124.45;22.17;;;;;;;1.94;80.08;100845.56;1713535;84;21150;-79
2023/01/14 03:38:59;;;;;;;121.07;22.20;;;;;;;1.79;80.48;100845.30;1698974;84;21234;-79
2023/01/14 03:42:20;;;;;;;135.07;21.07;;;;;;;1.69;81.01;100843.69;1712408;84;21737;-78
2023/01/14 03:45:36;;;;;;;123.82;20.32;;;;;;;2.14;80.04;100841.44;1697098;84;21246;-78
2023/01/14 03:48:42;;;;;;;94.90;22.10;;;;;;;1.65;81.10;100841.34;1712412;84;21843;-79
2023/01/14 03:52:13;;;;;;;85.57;20.62;;;;;;;1.59;81.63;100843.09;1696468;84;21215;-79
2023/01/14 03:55:32;;;;;;;106.95;21.33;;;;;;;1.90;80.20;100844.05;1713777;84;21161;-79
2023/01/14 03:59:01;;;;;;;136.18;22.80;;;;;;;1.77;81.00;100839.98;1698835;84;21183;-79
2023/01/14 04:02:06;;;;;;;123.60;23.32;;;;;;;2.13;80.07;100842.42;1711766;84;21280;-79
2023/01/14 04:05:10;;;;;;;106.87;22.45;;;;;;;2.17;79.81;100839.88;1697653;84;21251;-78
2023/01/14 04:08:16;;;;;;;120.05;21.50;;;;;;;1.98;80.34;100838.12;1712511;84;21252;-79
2023/01/14 04:11:22;;;;;;;139.10;22.77;;;;;;;2.57;78.59;100836.98;1697650;84;21183;-79
2023/01/14 04:17:52;;;;;;;121.30;23.55;;;;;;;2.45;78.57;100832.00;1709693;81;21853;-79
2023/01/14 04:20:57;;;;;;;114.62;22.02;;;;;;;1.93;80.00;100839.79;1717977;83;21753;-79
2023/01/14 04:24:03;;;;;;;163.28;21.48;;;;;;;1.93;80.42;100841.59;1717845;83;21179;-79
2023/01/14 04:27:08;;;;;;;120.70;20.52;;;;;;;1.98;81.28;100840.81;1716733;83;21273;-79
2023/01/14 04:30:15;;;;;;;112.12;19.60;;;;;;;1.73;81.71;100842.52;1717808;83;21206;-77
2023/01/14 04:33:21;;;;;;;128.23;21.60;;;;;;;1.99;81.41;100839.34;1718436;83;21211;-79
2023/01/14 04:36:27;;;;;;;134.78;20.62;;;;;;;1.95;81.43;100843.23;1717267;83;21773;-79
2023/01/14 04:39:33;;;;;;;107.15;21.02;;;;;;;1.95;81.09;100844.58;1717243;83;21222;-78
2023/01/14 04:42:39;;;;;;;99.60;21.25;;;;;;;2.20;80.65;100842.34;1717954;83;21187;-79
2023/01/14 04:45:45;;;;;;;79.35;18.42;;;;;;;2.38;79.78;100840.65;1717689;83;21285;-78
2023/01/14 04:48:51;;;;;;;99.47;21.17;;;;;;;2.27;79.67;100835.55;1716455;83;21218;-78
2023/01/14 04:51:49;;;;;;;122.35;21.85;;;;;;;2.18;80.31;100844.30;1717755;83;21246;-78
2023/01/14 04:54:43;;;;;;;90.40;18.37;;;;;;;2.24;80.23;100847.90;1716566;83;21202;-78
2023/01/14 04:57:29;;;;;;;113.37;20.55;;;;;;;2.05;80.61;100840.74;1716888;83;21828;-77
2023/01/14 05:00:22;;;;;;;106.17;20.62;;;;;;;2.03;80.96;100842.70;1717771;83;21174;-77
2023/01/14 05:03:11;;;;;;;91.55;21.73;;;;;;;1.90;81.67;100841.34;1717007;83;21234;-78
2023/01/14 05:06:05;;;;;;;108.72;21.35;;;;;;;1.90;81.80;100838.64;1717583;83;21282;-78
2023/01/14 05:09:09;;;;;;;90.90;21.00;;;;;;;2.19;80.70;100846.02;1717948;83;21761;-78
2023/01/14 05:12:15;;;;;;;96.97;21.12;;;;;;;2.23;80.38;100845.32;1717827;83;21191;-81
2023/01/14 05:15:21;;;;;;;103.12;20.75;;;;;;;1.97;81.42;100843.97;1717842;83;21239;-78
2023/01/14 05:18:27;;;;;;;86.00;20.17;;;;;;;1.78;82.36;100846.23;1718226;81;21230;-79
2023/01/14 05:21:33;;;;;;;83.90;19.30;;;;;;;2.47;81.46;100840.84;1717849;83;21750;-79
2023/01/14 05:24:39;;;;;;;93.85;20.52;;;;;;;2.08;81.47;100846.42;1717859;83;21741;-79
2023/01/14 05:27:44;;;;;;;92.22;18.52;;;;;;;1.84;82.56;100845.83;1716867;83;21230;-79
2023/01/14 05:30:50;;;;;;;87.50;18.75;;;;;;;2.00;82.17;100848.30;1718026;83;21187;-78
2023/01/14 05:33:57;;;;;;;82.55;17.73;;;;;;;2.44;81.79;100849.64;1717070;83;21231;-78
2023/01/14 05:37:03;;;;;;;82.78;19.23;;;;;;;2.15;82.00;100844.51;1716430;83;21203;-78
2023/01/14 05:40:10;;;;;;;82.53;17.48;;;;;;;2.10;82.01;100853.91;1716437;83;21237;-78
2023/01/14 05:46:41;;;;;;;83.90;18.73;;;;;;;2.07;81.99;100849.61;1717621;83;21234;-77
2023/01/14 05:49:46;;;;;;;86.02;19.35;;;;;;;1.92;82.89;100851.53;1716612;83;21234;-78
2023/01/14 05:52:52;;;;;;;80.15;17.60;;;;;;;2.45;81.11;100862.20;1704972;83;21190;-78
2023/01/14 05:56:00;;;;;;;73.85;15.60;;;;;;;2.40;81.00;100854.43;1717756;83;21218;-79
2023/01/14 05:59:05;;;;;;;46.77;13.58;;;;;;;2.44;80.81;100857.25;1717871;83;21191;-78
2023/01/14 06:08:47;;;;;;;53.25;14.38;;;;;;;2.85;80.19;100857.92;1716718;83;21222;-78
2023/01/14 06:12:02;;;;;;;68.17;15.18;;;;;;;2.69;79.73;100855.00;1717879;83;22485;-78
2023/01/14 06:15:01;;;;;;;69.77;15.48;;;;;;;2.66;79.87;100856.56;1718019;83;21203;-78
2023/01/14 06:18:21;;;;;;;69.27;15.85;;;;;;;2.14;81.45;100858.98;1717206;83;21194;-78
2023/01/14 06:21:26;;;;;;;62.85;14.03;;;;;;;2.12;82.12;100856.00;1739686;82;21726;-78
2023/01/14 06:24:32;;;;;;;66.55;14.07;;;;;;;2.52;81.13;100851.31;1739899;82;21195;-78
2023/01/14 06:27:38;;;;;;;56.90;15.58;;;;;;;2.38;81.22;100854.15;1739351;82;21231;-78
2023/01/14 06:30:44;;;;;;;54.90;13.13;;;;;;;2.34;81.47;100853.98;1738466;82;21242;-79
2023/01/14 06:33:51;;;;;;;61.42;13.75;;;;;;;2.37;81.44;100853.78;1739610;82;21270;-79
2023/01/14 06:36:56;;;;;;;51.40;14.00;;;;;;;2.10;82.43;100854.77;1739809;82;21206;-81
2023/01/14 06:39:56;;;;;;;54.33;13.85;;;;;;;2.08;82.73;100849.98;1738910;82;21214;-78
2023/01/14 06:43:02;;;;;;;59.77;13.65;;;;;;;2.07;82.75;100850.06;1739620;82;21241;-79
2023/01/14 06:46:08;;;;;;;87.53;14.05;;;;;;;2.24;81.85;100856.48;1739672;82;21238;-77
2023/01/14 06:49:15;;;;;;;71.45;14.70;;;;;;;2.19;82.57;100857.30;1738648;82;21258;-78
2023/01/14 06:52:21;;;;;;;86.97;17.17;;;;;;;2.19;82.83;100858.16;1738267;82;21262;-78
2023/01/14 06:55:27;;;;;;;51.92;14.35;;;;;;;2.29;82.02;100859.72;1738356;82;21439;-78
2023/01/14 06:58:33;;;;;;;64.55;16.40;;;;;;;1.89;83.12;100857.65;1739275;82;21242;-78
2023/01/14 07:01:39;;;;;;;105.35;18.27;;;;;;;2.00;83.49;100856.39;1739641;82;21186;-79
2023/01/14 07:04:45;;;;;;;50.85;12.78;;;;;;;2.11;83.16;100855.14;1738305;82;21215;-78
2023/01/14 07:07:55;;;;;;;58.52;19.67;;;;;;;2.23;83.05;100854.77;1739598;82;21273;-77
2023/01/14 07:11:00;;;;;;;55.60;12.10;;;;;;;2.54;83.37;100852.05;1740403;82;21203;-78
2023/01/14 07:14:05;;;;;;;58.55;15.75;;;;;;;2.08;84.26;100855.38;1739821;82;21737;-77
2023/01/14 07:17:12;;;;;;;62.40;17.32;;;;;;;2.68;81.03;100854.64;1739544;82;21213;-77
2023/01/14 07:20:18;;;;;;;70.10;16.32;;;;;;;2.86;80.52;100856.94;1739473;82;21206;-78
2023/01/14 07:23:24;;;;;;;62.25;15.30;;;;;;;2.77;80.60;100860.68;1745120;82;21222;-78
2023/01/14 07:26:30;;;;;;;44.13;13.22;;;;;;;2.83;80.72;100860.75;1745249;82;21206;-78
2023/01/14 07:29:36;;;;;;;65.83;15.25;;;;;;;2.68;80.79;100857.34;1744073;82;21765;-78
2023/01/14 07:32:41;;;;;;;78.72;15.75;;;;;;;3.11;79.79;100867.66;1745103;82;21242;-78
2023/01/14 07:35:51;;;;;;;74.60;16.80;;;;;;;3.12;79.92;100865.33;1744486;82;21265;-77
2023/01/14 07:38:54;;;;;;;59.42;16.97;;;;;;;3.24;79.08;100861.68;1744519;82;21234;-78
2023/01/14 07:41:59;;;;;;;80.72;18.07;;;;;;;3.24;78.64;100872.49;1745217;82;21190;-78
2023/01/14 07:45:06;;;;;;;76.85;18.27;;;;;;;3.07;79.02;100875.13;1744914;82;21187;-78
2023/01/14 07:48:12;;;;;;;81.78;18.30;;;;;;;3.17;78.91;100864.48;1743766;82;22505;-78
2023/01/14 07:51:20;;;;;;;69.17;18.45;;;;;;;2.20;82.14;100872.03;1744739;82;21226;-78
2023/01/14 07:54:25;;;;;;;100.27;21.95;;;;;;;2.14;82.95;100872.97;1745237;82;21194;-79
2023/01/14 07:57:31;;;;;;;64.55;18.20;;;;;;;2.80;81.56;100876.67;1745067;82;21253;-78
2023/01/14 08:00:32;;;;;;;71.22;19.05;;;;;;;2.32;83.17;100864.91;1743791;82;21765;-78
2023/01/14 08:03:37;;;;;;;79.15;21.30;;;;;;;2.37;83.12;100865.44;1745266;82;21194;-78
2023/01/14 08:06:43;;;;;;;57.08;17.87;;;;;;;2.26;83.28;100870.27;1744170;82;21236;-78
2023/01/14 08:09:49;;;;;;;58.38;20.08;;;;;;;2.60;82.79;100871.88;1744546;82;21359;-78
2023/01/14 08:12:55;;;;;;;67.25;20.25;;;;;;;2.69;81.97;100873.05;1745101;82;21170;-78
2023/01/14 08:16:03;;;;;;;58.85;19.73;;;;;;;2.82;81.54;100872.50;1745207;82;21812;-78
2023/01/14 08:19:10;;;;;;;83.40;20.02;;;;;;;2.76;81.37;100871.61;1744992;82;21210;-78
2023/01/14 08:22:16;;;;;;;80.77;21.33;;;;;;;2.41;82.40;100871.00;1740490;82;21900;-78
2023/01/14 08:25:22;;;;;;;70.80;20.27;;;;;;;2.36;82.64;100866.42;1739682;82;21198;-78
2023/01/14 08:28:29;;;;;;;52.10;20.48;;;;;;;2.33;83.42;100865.28;1739647;82;21246;-78
2023/01/14 08:31:35;;;;;;;61.00;19.75;;;;;;;2.42;82.79;100861.06;1739510;82;21195;-78
2023/01/14 08:34:42;;;;;;;62.35;20.55;;;;;;;2.53;82.49;100863.83;1739498;82;21737;-78
2023/01/14 08:37:48;;;;;;;66.07;22.90;;;;;;;2.57;82.05;100862.64;1738341;82;21222;-78
2023/01/14 08:40:54;;;;;;;81.32;22.25;;;;;;;2.47;82.41;100859.75;1738568;82;21273;-78
2023/01/14 08:44:01;;;;;;;70.35;22.50;;;;;;;3.52;79.26;100856.88;1738290;82;21235;-77
2023/01/14 08:47:06;;;;;;;59.48;20.02;;;;;;;2.72;80.77;100859.30;1739550;82;21230;-78
2023/01/14 08:50:12;;;;;;;58.85;19.60;;;;;;;2.58;81.40;100853.55;1739095;82;21821;-78
2023/01/14 08:53:18;;;;;;;57.55;20.00;;;;;;;2.50;81.59;100851.44;1739739;82;21802;-78
2023/01/14 08:56:19;;;;;;;78.57;20.45;;;;;;;2.60;81.32;100846.72;1739607;82;21195;-78
2023/01/14 08:59:25;;;;;;;57.38;18.25;;;;;;;2.89;80.63;100850.83;1738197;82;21765;-78
2023/01/14 09:02:25;;;;;;;60.15;15.10;;;;;;;3.18;79.72;100841.02;1739817;82;21206;-79
2023/01/14 09:05:31;;;;;;;48.65;15.83;;;;;;;3.08;79.43;100842.20;1739512;82;21186;-79
2023/01/14 09:18:48;;;;;;;37.25;14.87;;;;;;;3.36;78.15;100829.30;1739547;82;21198;-79
2023/01/14 09:21:53;;;;;;;41.45;15.58;;;;;;;2.87;78.96;100832.98;1739334;82;21249;-79
2023/01/14 09:24:58;;;;;;;56.13;17.40;;;;;;;3.08;78.76;100831.39;1739566;82;21306;-79
2023/01/14 09:28:06;;;;;;;79.03;16.12;;;;;;;3.47;77.36;100826.63;1739852;82;21135;-79
2023/01/14 09:31:11;;;;;;;59.23;18.98;;;;;;;3.32;77.41;100820.06;1738883;82;21238;-79
2023/01/14 09:34:18;;;;;;;58.40;17.27;;;;;;;3.24;77.42;100817.56;1739694;82;21190;-78
2023/01/14 09:37:32;;;;;;;76.40;20.25;;;;;;;4.04;74.61;100820.33;1739084;82;21783;-78
2023/01/14 09:40:39;;;;;;;48.58;16.95;;;;;;;3.17;77.21;100822.59;1738497;82;21190;-79
2023/01/14 09:43:43;;;;;;;78.75;19.60;;;;;;;3.23;77.08;100811.30;1717458;82;21191;-78
2023/01/14 09:46:35;;;;;;;67.97;20.85;;;;;;;3.33;76.89;100811.45;1738312;82;21202;-78
2023/01/14 09:49:41;;;;;;;64.00;19.62;;;;;;;3.07;78.02;100811.61;1682182;82;21199;-77
2023/01/14 09:53:01;;;;;;;76.77;19.40;;;;;;;3.59;76.49;100813.02;1739180;82;21808;-78
2023/01/14 09:56:13;;;;;;;61.13;21.90;;;;;;;3.17;77.16;100810.42;1739574;82;21757;-78
2023/01/14 09:59:44;;;;;;;76.42;21.48;;;;;;;3.29;76.92;100812.20;1718902;82;21654;-78
2023/01/14 10:03:10;;;;;;;59.23;21.87;;;;;;;3.23;77.04;100807.24;1703567;82;21210;-78
2023/01/14 10:06:23;;;;;;;73.35;19.85;;;;;;;3.35;76.86;100807.30;1739673;82;21198;-78
2023/01/14 10:09:40;;;;;;;83.07;21.75;;;;;;;3.06;77.79;100810.39;1739823;82;21190;-78
2023/01/14 10:12:48;;;;;;;73.95;19.77;;;;;;;3.27;77.56;100814.14;1739887;82;21742;-78
2023/01/14 10:16:09;;;;;;;60.20;22.37;;;;;;;3.23;78.07;100805.89;1739872;82;21187;-79
2023/01/14 10:19:40;;;;;;;61.90;20.82;;;;;;;3.01;78.97;100808.48;1739754;82;21202;-78
2023/01/14 10:22:53;;;;;;;63.65;21.68;;;;;;;2.62;80.25;100810.50;1739359;82;21900;-78
2023/01/14 10:26:01;;;;;;;58.70;20.57;;;;;;;2.69;80.66;100807.73;1739550;82;21174;-78
2023/01/14 10:29:10;;;;;;;57.95;21.68;;;;;;;2.83;80.13;100798.60;1739896;82;21503;-78
2023/01/14 10:32:20;;;;;;;65.50;20.48;;;;;;;2.88;79.69;100801.81;1738640;82;21218;-78
2023/01/14 10:35:30;;;;;;;81.12;21.77;;;;;;;2.63;80.30;100796.01;1739848;82;21722;-77
2023/01/14 10:38:35;;;;;;;76.12;20.45;;;;;;;2.59;81.02;100792.30;1739233;82;21222;-77
2023/01/14 10:41:50;;;;;;;74.30;21.80;;;;;;;2.56;81.40;100787.52;1739022;82;21199;-78
2023/01/14 10:44:55;;;;;;;68.22;20.88;;;;;;;2.50;81.66;100787.11;1739696;82;21265;-77
2023/01/14 10:48:06;;;;;;;63.13;20.97;;;;;;;2.61;81.79;100776.86;1738133;82;21179;-77
2023/01/14 10:51:47;;;;;;;71.97;21.60;;;;;;;2.63;81.60;100781.16;1739486;82;21238;-78
2023/01/14 10:54:52;;;;;;;70.57;20.65;;;;;;;2.67;81.53;100782.66;1738180;82;21226;-77
2023/01/14 10:58:13;;;;;;;;;;;;;;;2.66;80.94;100779.59;1742364;82;21329;-78
2023/01/14 11:01:18;;;;;;;58.38;19.82;;;;;;;2.64;80.64;100776.16;1713376;83;20219;-78
2023/01/14 11:04:24;;;;;;;49.25;20.62;;;;;;;2.84;80.51;100775.14;1739928;82;21179;-77
2023/01/14 11:07:50;;;;;;;50.30;20.75;;;;;;;2.86;80.30;100770.47;1739673;82;21230;-77
2023/01/14 11:11:07;;;;;;;45.00;21.17;;;;;;;2.72;80.34;100775.06;1740523;82;21179;-78
2023/01/14 11:14:29;;;;;;;52.13;21.73;;;;;;;2.54;80.52;100766.52;1739581;82;22588;-77
2023/01/14 11:17:34;;;;;;;55.67;21.48;;;;;;;2.59;80.36;100775.63;1739658;82;21191;-78
2023/01/14 11:20:38;;;;;;;64.30;23.87;;;;;;;2.69;80.08;100769.05;1740654;82;21234;-77
2023/01/14 11:23:55;;;;;;;56.08;22.30;;;;;;;2.94;79.52;100769.41;1738258;82;21206;-78
2023/01/14 11:27:25;;;;;;;64.72;22.42;;;;;;;2.99;78.49;100767.22;1739681;82;21194;-78
2023/01/14 11:30:31;;;;;;;52.65;20.57;;;;;;;2.93;79.03;100777.16;1739765;82;21194;-78
2023/01/14 11:33:37;;;;;;;58.17;21.23;;;;;;;2.89;78.17;100767.05;1739480;82;21730;-77
2023/01/14 11:36:44;;;;;;;53.83;20.12;;;;;;;2.67;79.18;100769.15;1739696;82;21758;-80
2023/01/14 11:40:03;;;;;;;48.85;17.70;;;;;;;2.65;78.61;100758.96;1739384;82;21206;-80
2023/01/14 11:43:11;;;;;;;43.28;17.60;;;;;;;2.69;78.09;100760.95;1738627;82;21198;-79
2023/01/14 11:46:22;;;;;;;46.37;18.25;;;;;;;2.81;78.66;100756.81;1739786;82;21226;-80
2023/01/14 11:49:29;;;;;;;40.03;18.25;;;;;;;2.43;78.63;100766.92;1739750;82;21238;-80
2023/01/14 11:52:35;;;;;;;43.17;17.40;;;;;;;2.70;78.46;100774.33;1740617;82;21258;-79
2023/01/14 11:55:44;;;;;;;50.08;18.50;;;;;;;2.44;78.68;100772.69;1738395;82;21262;-80
2023/01/14 11:58:49;;;;;;;43.08;16.62;;;;;;;2.64;78.38;100775.30;1739603;82;21792;-79
2023/01/14 12:02:02;;;;;;;44.13;19.23;;;;;;;2.99;77.50;100769.43;1739741;82;21187;-79
2023/01/14 12:05:26;;;;;;;56.68;18.37;;;;;;;3.11;77.52;100770.84;1705097;84;21222;-78
2023/01/14 12:08:36;;;;;;;52.62;16.85;;;;;;;2.76;78.07;100771.16;1713545;83;21735;-77
2023/01/14 12:12:04;;;;;;;45.90;14.95;;;;;;;2.52;79.16;100771.65;1738428;82;21197;-78
2023/01/14 12:33:54;;;;;;;39.98;17.00;;;;;;;4.53;71.93;100786.59;1875994;76;22204;-77
2023/01/14 17:54:45;;;;;;;74.53;16.23;;;;;;;2.02;91.67;100839.14;1870526;76;28127;-85
2023/01/14 17:57:50;;;;;;;69.62;16.73;;;;;;;2.05;88.69;100842.95;1782407;80;21203;-86
2023/01/14 18:00:56;;;;;;;70.22;16.32;;;;;;;2.00;88.04;100847.81;1807082;78;21916;-86
2023/01/14 18:04:05;;;;;;;75.15;16.25;;;;;;;2.15;86.46;100845.00;1818050;78;21152;-85
2023/01/14 18:07:16;;;;;;;68.35;15.70;;;;;;;2.04;86.41;100849.81;1816411;78;21275;-85
2023/01/14 18:10:24;;;;;;;;;;;;;;;2.04;86.12;100849.33;1820623;79;21284;-85
2023/01/14 18:13:32;;;;;;;83.72;15.28;;;;;;;2.19;85.44;100847.86;1813023;78;20609;-85
2023/01/14 18:16:39;;;;;;;54.55;14.43;;;;;;;2.39;84.09;100839.67;1819438;78;21762;-87
2023/01/14 18:19:46;;;;;;;79.90;15.65;;;;;;;2.29;83.85;100840.33;1811124;78;21184;-87
2023/01/14 18:22:56;;;;;;;87.75;15.03;;;;;;;2.19;84.26;100833.87;1816734;78;21312;-86
2023/01/14 18:26:07;;;;;;;54.25;14.03;;;;;;;1.90;84.90;100837.30;1811723;78;21837;-85
2023/01/14 18:29:11;;;;;;;41.95;12.43;;;;;;;1.96;85.35;100838.69;1812759;78;21466;-86
2023/01/14 18:32:19;;;;;;;70.03;14.58;;;;;;;1.79;85.25;100843.45;1805509;78;21267;-86
2023/01/14 18:35:26;;;;;;;70.00;13.93;;;;;;;1.89;84.19;100840.11;1810229;78;21807;-86
2023/01/14 18:38:33;;;;;;;71.97;14.20;;;;;;;1.82;83.85;100841.50;1825243;78;21298;-86
2023/01/14 18:41:41;;;;;;;73.78;13.72;;;;;;;1.79;84.18;100843.45;1818896;78;21393;-85
2023/01/14 18:44:49;;;;;;;69.65;14.78;;;;;;;1.84;84.03;100846.32;1814983;78;21204;-86
2023/01/14 18:47:56;;;;;;;83.33;15.55;;;;;;;1.94;83.80;100848.74;1817404;79;21177;-86
2023/01/14 18:51:07;;;;;;;80.57;16.85;;;;;;;2.01;83.61;100850.87;1809772;78;21255;-86
2023/01/14 18:54:10;;;;;;;68.83;13.98;;;;;;;1.92;83.45;100853.36;1810485;78;21203;-86
2023/01/14 18:57:19;;;;;;;72.15;13.95;;;;;;;2.01;83.09;100848.67;1815950;78;21195;-85
2023/01/14 19:00:26;;;;;;;89.15;16.40;;;;;;;1.83;83.31;100857.56;1790235;78;21216;-86
2023/01/14 19:03:34;;;;;;;106.00;18.35;;;;;;;1.89;82.87;100849.55;1779301;78;21743;-85
2023/01/14 19:06:43;;;;;;;73.52;15.70;;;;;;;2.10;82.34;100856.12;1816139;78;21212;-85
2023/01/14 19:09:49;;;;;;;49.03;11.53;;;;;;;1.89;82.21;100846.86;1804207;78;21212;-85
2023/01/14 19:12:56;;;;;;;67.47;15.75;;;;;;;1.82;82.95;100844.20;1806168;78;21184;-86
2023/01/14 19:16:15;;;;;;;94.60;16.05;;;;;;;1.71;82.74;100847.16;1810037;79;21341;-86
2023/01/14 19:19:21;;;;;;;75.80;15.58;;;;;;;2.11;80.97;100848.39;1807416;78;21198;-85
2023/01/14 19:22:27;;;;;;;97.57;15.40;;;;;;;1.73;81.59;100851.95;1814866;78;21259;-86
2023/01/14 19:25:36;;;;;;;67.97;14.58;;;;;;;2.12;81.70;100851.95;1814064;79;21354;-85
2023/01/14 19:28:42;;;;;;;69.75;13.45;;;;;;;2.21;81.04;100850.84;1817200;78;21180;-86
2023/01/14 19:31:50;;;;;;;75.85;12.78;;;;;;;2.16;80.74;100848.92;1812514;78;21191;-86
2023/01/14 19:34:55;;;;;;;72.65;13.30;;;;;;;2.81;78.79;100850.03;1808123;78;21224;-86
2023/01/14 19:38:02;;;;;;;81.70;12.88;;;;;;;1.75;80.97;100848.68;1817017;79;21481;-85
2023/01/14 19:41:10;;;;;;;82.40;12.85;;;;;;;2.30;80.57;100850.15;1802136;78;21247;-86
2023/01/14 19:44:16;;;;;;;78.83;12.90;;;;;;;2.89;78.01;100852.66;1812117;78;21180;-86
2023/01/14 19:47:23;;;;;;;105.10;16.30;;;;;;;3.68;74.57;100849.32;1782404;79;21273;-85
2023/01/14 19:50:30;;;;;;;80.57;14.05;;;;;;;3.72;73.18;100852.66;1802281;79;21177;-86
2023/01/14 19:53:35;;;;;;;105.67;15.58;;;;;;;3.62;72.96;100851.13;1805484;78;21298;-86
2023/01/14 19:56:44;;;;;;;96.65;13.95;;;;;;;3.57;72.83;100844.72;1813318;78;21180;-86
2023/01/14 19:59:52;;;;;;;86.65;13.75;;;;;;;3.05;74.36;100850.04;1813740;79;21279;-86
2023/01/14 20:03:02;;;;;;;79.13;13.33;;;;;;;3.10;74.41;100851.05;1777323;78;21753;-86
2023/01/14 20:06:10;;;;;;;75.17;16.95;;;;;;;3.24;73.77;100842.75;1810870;78;21266;-86
2023/01/14 20:09:21;;;;;;;80.03;15.98;;;;;;;3.04;74.09;100851.52;1803985;78;21211;-86
2023/01/14 20:12:28;;;;;;;125.18;16.85;;;;;;;3.17;74.15;100849.63;1812636;78;21266;-86
2023/01/14 20:15:35;;;;;;;81.72;15.53;;;;;;;3.26;74.34;100844.02;1815683;79;21711;-86
2023/01/14 20:18:41;;;;;;;95.65;15.95;;;;;;;3.27;74.38;100847.94;1808893;78;21310;-86
2023/01/14 20:21:50;;;;;;;78.42;14.53;;;;;;;3.28;74.55;100844.25;1816410;78;21255;-86
2023/01/14 20:24:56;;;;;;;88.78;17.25;;;;;;;3.42;73.78;100837.79;1811790;78;21216;-85
2023/01/14 20:28:01;;;;;;;95.60;17.02;;;;;;;3.41;73.58;100829.81;1810289;78;21233;-85
2023/01/14 20:31:19;;;;;;;101.62;17.80;;;;;;;3.23;74.05;100836.98;1814033;78;21258;-85